sensor_id;sensor_type;location;lat;lon;timestamp;pressure;altitude;pressure_sealevel;temperature;humidity
55490;BME280;44029;52.956;4.772;2022-07-24T00:01:47;101918.09;;;20.31;100.00
55490;BME280;44029;52.956;4.772;2022-07-24T00:04:12;101912.81;;;20.30;100.00
55490;BME280;44029;52.956;4.772;2022-07-24T00:06:37;101917.31;;;20.25;100.00
55490;BME280;44029;52.956;4.772;2022-07-24T00:09:04;101918.66;;;20.33;100.00
55490;BME280;44029;52.956;4.772;2022-07-24T00:11:30;101917.22;;;20.36;100.00
55490;BME280;44029;52.956;4.772;2022-07-24T00:13:55;101915.56;;;20.35;100.00
55490;BME280;44029;52.956;4.772;2022-07-24T00:16:20;101923.97;;;20.30;100.00
55490;BME280;44029;52.956;4.772;2022-07-24T00:18:46;101912.81;;;20.30;100.00
55490;BME280;44029;52.956;4.772;2022-07-24T00:21:11;101917.59;;;20.24;100.00
55490;BME280;44029;52.956;4.772;2022-07-24T00:23:36;101911.75;;;20.25;100.00
55490;BME280;44029;52.956;4.772;2022-07-24T00:26:02;101910.59;;;20.32;100.00
55490;BME280;44029;52.956;4.772;2022-07-24T00:28:27;101915.31;;;20.31;100.00
55490;BME280;44029;52.956;4.772;2022-07-24T00:30:53;101898.94;;;20.24;100.00
55490;BME280;44029;52.956;4.772;2022-07-24T00:33:18;101908.69;;;20.27;100.00
55490;BME280;44029;52.956;4.772;2022-07-24T00:35:44;101913.66;;;20.30;100.00
55490;BME280;44029;52.956;4.772;2022-07-24T00:38:09;101905.91;;;20.27;100.00
55490;BME280;44029;52.956;4.772;2022-07-24T00:40:35;101915.09;;;20.22;100.00
55490;BME280;44029;52.956;4.772;2022-07-24T00:43:01;101903.13;;;20.27;100.00
55490;BME280;44029;52.956;4.772;2022-07-24T00:45:27;101906.25;;;20.15;100.00
55490;BME280;44029;52.956;4.772;2022-07-24T00:47:52;101908.19;;;20.20;100.00
55490;BME280;44029;52.956;4.772;2022-07-24T00:50:18;101907.66;;;20.13;100.00
55490;BME280;44029;52.956;4.772;2022-07-24T00:52:47;101907.38;;;20.14;100.00
55490;BME280;44029;52.956;4.772;2022-07-24T00:55:13;101905.75;;;20.08;100.00
55490;BME280;44029;52.956;4.772;2022-07-24T00:57:38;101914.66;;;20.10;100.00
55490;BME280;44029;52.956;4.772;2022-07-24T01:00:07;101909.56;;;20.17;100.00
55490;BME280;44029;52.956;4.772;2022-07-24T01:02:34;101911.28;;;20.13;100.00
55490;BME280;44029;52.956;4.772;2022-07-24T01:04:59;101911.34;;;20.03;100.00
55490;BME280;44029;52.956;4.772;2022-07-24T01:07:25;101909.97;;;20.00;100.00
55490;BME280;44029;52.956;4.772;2022-07-24T01:09:51;101906.66;;;19.93;100.00
55490;BME280;44029;52.956;4.772;2022-07-24T01:12:17;101911.94;;;19.95;100.00
55490;BME280;44029;52.956;4.772;2022-07-24T01:14:44;101916.97;;;19.93;100.00
55490;BME280;44029;52.956;4.772;2022-07-24T01:17:10;101915.34;;;19.86;100.00
55490;BME280;44029;52.956;4.772;2022-07-24T01:19:35;101912.06;;;19.79;100.00
55490;BME280;44029;52.956;4.772;2022-07-24T01:22:01;101909.81;;;19.81;100.00
55490;BME280;44029;52.956;4.772;2022-07-24T01:24:27;101904.53;;;19.80;100.00
55490;BME280;44029;52.956;4.772;2022-07-24T01:26:52;101902.56;;;19.80;100.00
55490;BME280;44029;52.956;4.772;2022-07-24T01:29:18;101899.22;;;19.83;100.00
55490;BME280;44029;52.956;4.772;2022-07-24T01:31:43;101905.69;;;19.74;100.00
55490;BME280;44029;52.956;4.772;2022-07-24T01:34:08;101910.34;;;19.83;100.00
55490;BME280;44029;52.956;4.772;2022-07-24T01:36:34;101912.59;;;19.76;100.00
55490;BME280;44029;52.956;4.772;2022-07-24T01:38:59;101912.06;;;19.74;100.00
55490;BME280;44029;52.956;4.772;2022-07-24T01:41:24;101915.69;;;19.69;100.00
55490;BME280;44029;52.956;4.772;2022-07-24T01:43:50;101907.66;;;19.63;100.00
55490;BME280;44029;52.956;4.772;2022-07-24T01:46:15;101913.19;;;19.68;100.00
55490;BME280;44029;52.956;4.772;2022-07-24T01:48:42;101915.38;;;19.76;100.00
55490;BME280;44029;52.956;4.772;2022-07-24T01:51:08;101905.41;;;19.65;100.00
55490;BME280;44029;52.956;4.772;2022-07-24T01:53:34;101919.91;;;19.62;100.00
55490;BME280;44029;52.956;4.772;2022-07-24T01:55:59;101916.84;;;19.58;100.00
55490;BME280;44029;52.956;4.772;2022-07-24T01:58:25;101907.66;;;19.63;100.00
55490;BME280;44029;52.956;4.772;2022-07-24T02:00:50;101910.69;;;19.66;100.00
55490;BME280;44029;52.956;4.772;2022-07-24T02:03:17;101909.56;;;19.78;100.00
55490;BME280;44029;52.956;4.772;2022-07-24T02:05:42;101915.38;;;19.76;100.00
55490;BME280;44029;52.956;4.772;2022-07-24T02:08:07;101907.59;;;19.78;100.00
55490;BME280;44029;52.956;4.772;2022-07-24T02:10:33;101913.44;;;19.72;100.00
55490;BME280;44029;52.956;4.772;2022-07-24T02:12:58;101901.50;;;19.71;100.00
55490;BME280;44029;52.956;4.772;2022-07-24T02:15:24;101897.59;;;19.72;100.00
55490;BME280;44029;52.956;4.772;2022-07-24T02:17:51;101897.06;;;19.75;100.00
55490;BME280;44029;52.956;4.772;2022-07-24T02:20:18;101898.16;;;19.69;100.00
55490;BME280;44029;52.956;4.772;2022-07-24T02:22:44;101887.59;;;19.76;100.00
55490;BME280;44029;52.956;4.772;2022-07-24T02:25:10;101889.25;;;19.77;100.00
55490;BME280;44029;52.956;4.772;2022-07-24T02:27:36;101890.34;;;19.81;100.00
55490;BME280;44029;52.956;4.772;2022-07-24T02:30:07;101891.75;;;19.79;100.00
55490;BME280;44029;52.956;4.772;2022-07-24T02:32:34;101875.34;;;19.72;100.00
55490;BME280;44029;52.956;4.772;2022-07-24T02:34:59;101872.59;;;19.67;100.00
55490;BME280;44029;52.956;4.772;2022-07-24T02:37:25;101869.53;;;19.79;100.00
55490;BME280;44029;52.956;4.772;2022-07-24T02:39:50;101868.34;;;19.85;100.00
55490;BME280;44029;52.956;4.772;2022-07-24T02:42:15;101865.28;;;19.86;100.00
55490;BME280;44029;52.956;4.772;2022-07-24T02:44:41;101864.47;;;19.86;100.00
55490;BME280;44029;52.956;4.772;2022-07-24T02:47:06;101880.25;;;19.96;100.00
55490;BME280;44029;52.956;4.772;2022-07-24T02:49:32;101888.88;;;19.94;100.00
55490;BME280;44029;52.956;4.772;2022-07-24T02:51:57;101882.75;;;19.97;100.00
55490;BME280;44029;52.956;4.772;2022-07-24T02:54:22;101881.31;;;20.05;100.00
55490;BME280;44029;52.956;4.772;2022-07-24T02:56:48;101885.22;;;19.99;100.00
55490;BME280;44029;52.956;4.772;2022-07-24T02:59:13;101891.91;;;19.98;100.00
55490;BME280;44029;52.956;4.772;2022-07-24T03:01:39;101877.38;;;20.06;100.00
55490;BME280;44029;52.956;4.772;2022-07-24T03:04:04;101887.13;;;20.08;100.00
55490;BME280;44029;52.956;4.772;2022-07-24T03:06:29;101878.22;;;20.06;100.00
55490;BME280;44029;52.956;4.772;2022-07-24T03:08:55;101872.34;;;20.08;100.00
55490;BME280;44029;52.956;4.772;2022-07-24T03:11:20;101873.47;;;20.12;100.00
55490;BME280;44029;52.956;4.772;2022-07-24T03:13:45;101867.41;;;20.05;100.00
55490;BME280;44029;52.956;4.772;2022-07-24T03:16:11;101853.22;;;20.01;100.00
55490;BME280;44029;52.956;4.772;2022-07-24T03:18:36;101849.19;;;19.83;100.00
55490;BME280;44029;52.956;4.772;2022-07-24T03:21:01;101849.66;;;19.96;100.00
55490;BME280;44029;52.956;4.772;2022-07-24T03:23:27;101843.50;;;19.99;100.00
55490;BME280;44029;52.956;4.772;2022-07-24T03:25:52;101837.13;;;19.98;100.00
55490;BME280;44029;52.956;4.772;2022-07-24T03:28:19;101833.50;;;19.98;100.00
55490;BME280;44029;52.956;4.772;2022-07-24T03:30:44;101830.19;;;19.96;100.00
55490;BME280;44029;52.956;4.772;2022-07-24T03:33:10;101830.50;;;19.89;100.00
55490;BME280;44029;52.956;4.772;2022-07-24T03:35:35;101827.69;;;19.94;100.00
55490;BME280;44029;52.956;4.772;2022-07-24T03:38:00;101822.66;;;19.96;100.00
55490;BME280;44029;52.956;4.772;2022-07-24T03:40:26;101820.16;;;19.95;100.00
55490;BME280;44029;52.956;4.772;2022-07-24T03:42:51;101821.88;;;19.91;100.00
55490;BME280;44029;52.956;4.772;2022-07-24T03:45:16;101815.75;;;19.94;100.00
55490;BME280;44029;52.956;4.772;2022-07-24T03:47:42;101820.97;;;20.00;100.00
55490;BME280;44029;52.956;4.772;2022-07-24T03:50:07;101819.59;;;19.98;100.00
55490;BME280;44029;52.956;4.772;2022-07-24T03:52:33;101825.72;;;19.95;100.00
55490;BME280;44029;52.956;4.772;2022-07-24T03:54:58;101829.13;;;19.92;100.00
55490;BME280;44029;52.956;4.772;2022-07-24T03:57:23;101822.44;;;19.87;100.00
55490;BME280;44029;52.956;4.772;2022-07-24T03:59:49;101827.66;;;19.99;100.00
55490;BME280;44029;52.956;4.772;2022-07-24T04:02:14;101829.78;;;20.13;100.00
55490;BME280;44029;52.956;4.772;2022-07-24T04:04:40;101816.50;;;20.04;100.00
55490;BME280;44029;52.956;4.772;2022-07-24T04:07:05;101819.47;;;20.13;100.00
55490;BME280;44029;52.956;4.772;2022-07-24T04:09:31;101810.59;;;20.11;100.00
55490;BME280;44029;52.956;4.772;2022-07-24T04:11:56;101813.28;;;20.21;100.00
55490;BME280;44029;52.956;4.772;2022-07-24T04:14:21;101816.94;;;20.46;100.00
55490;BME280;44029;52.956;4.772;2022-07-24T04:16:47;101813.34;;;20.75;100.00
55490;BME280;44029;52.956;4.772;2022-07-24T04:19:12;101795.94;;;20.88;100.00
55490;BME280;44029;52.956;4.772;2022-07-24T04:21:38;101793.72;;;21.09;100.00
55490;BME280;44029;52.956;4.772;2022-07-24T04:24:03;101777.91;;;21.23;100.00
55490;BME280;44029;52.956;4.772;2022-07-24T04:26:29;101782.22;;;21.73;100.00
55490;BME280;44029;52.956;4.772;2022-07-24T04:28:54;101778.03;;;21.75;100.00
55490;BME280;44029;52.956;4.772;2022-07-24T04:31:19;101779.06;;;21.41;100.00
55490;BME280;44029;52.956;4.772;2022-07-24T04:33:45;101779.56;;;21.24;100.00
55490;BME280;44029;52.956;4.772;2022-07-24T04:36:10;101777.59;;;21.49;100.00
55490;BME280;44029;52.956;4.772;2022-07-24T04:38:35;101776.81;;;22.14;100.00
55490;BME280;44029;52.956;4.772;2022-07-24T04:41:01;101774.91;;;22.29;100.00
55490;BME280;44029;52.956;4.772;2022-07-24T04:43:27;101766.03;;;22.08;100.00
55490;BME280;44029;52.956;4.772;2022-07-24T04:45:53;101769.34;;;21.58;100.00
55490;BME280;44029;52.956;4.772;2022-07-24T04:48:18;101781.19;;;21.50;100.00
55490;BME280;44029;52.956;4.772;2022-07-24T04:50:43;101769.75;;;21.51;100.00
55490;BME280;44029;52.956;4.772;2022-07-24T04:53:09;101772.53;;;21.70;100.00
55490;BME280;44029;52.956;4.772;2022-07-24T04:55:34;101772.47;;;22.08;100.00
55490;BME280;44029;52.956;4.772;2022-07-24T04:57:59;101762.47;;;22.21;100.00
55490;BME280;44029;52.956;4.772;2022-07-24T05:00:25;101762.44;;;22.40;100.00
55490;BME280;44029;52.956;4.772;2022-07-24T05:02:50;101771.06;;;22.25;100.00
55490;BME280;44029;52.956;4.772;2022-07-24T05:05:16;101772.47;;;21.89;100.00
55490;BME280;44029;52.956;4.772;2022-07-24T05:07:41;101772.59;;;21.84;100.00
55490;BME280;44029;52.956;4.772;2022-07-24T05:10:06;101782.16;;;21.78;100.00
55490;BME280;44029;52.956;4.772;2022-07-24T05:12:32;101777.03;;;21.85;100.00
55490;BME280;44029;52.956;4.772;2022-07-24T05:14:57;101787.72;;;21.97;100.00
55490;BME280;44029;52.956;4.772;2022-07-24T05:17:23;101778.13;;;22.03;100.00
55490;BME280;44029;52.956;4.772;2022-07-24T05:19:48;101779.31;;;22.16;100.00
55490;BME280;44029;52.956;4.772;2022-07-24T05:22:14;101764.50;;;22.48;100.00
55490;BME280;44029;52.956;4.772;2022-07-24T05:24:39;101756.03;;;22.39;100.00
55490;BME280;44029;52.956;4.772;2022-07-24T05:27:04;101763.28;;;22.54;100.00
55490;BME280;44029;52.956;4.772;2022-07-24T05:29:29;101767.19;;;22.53;100.00
55490;BME280;44029;52.956;4.772;2022-07-24T05:31:55;101776.38;;;22.54;100.00
55490;BME280;44029;52.956;4.772;2022-07-24T05:34:21;101778.28;;;22.58;100.00
55490;BME280;44029;52.956;4.772;2022-07-24T05:36:47;101772.97;;;22.71;100.00
55490;BME280;44029;52.956;4.772;2022-07-24T05:39:13;101770.91;;;22.63;100.00
55490;BME280;44029;52.956;4.772;2022-07-24T05:41:38;101770.72;;;22.73;100.00
55490;BME280;44029;52.956;4.772;2022-07-24T05:44:04;101768.03;;;22.68;100.00
55490;BME280;44029;52.956;4.772;2022-07-24T05:46:29;101775.47;;;22.58;100.00
55490;BME280;44029;52.956;4.772;2022-07-24T05:48:54;101781.16;;;22.39;100.00
55490;BME280;44029;52.956;4.772;2022-07-24T05:51:20;101780.41;;;22.48;100.00
55490;BME280;44029;52.956;4.772;2022-07-24T05:53:45;101784.66;;;22.45;100.00
55490;BME280;44029;52.956;4.772;2022-07-24T05:56:10;101788.50;;;22.49;100.00
55490;BME280;44029;52.956;4.772;2022-07-24T05:58:36;101774.44;;;22.54;100.00
55490;BME280;44029;52.956;4.772;2022-07-24T06:01:02;101776.28;;;22.45;100.00
55490;BME280;44029;52.956;4.772;2022-07-24T06:03:27;101779.25;;;22.35;100.00
55490;BME280;44029;52.956;4.772;2022-07-24T06:05:53;101778.16;;;22.36;100.00
55490;BME280;44029;52.956;4.772;2022-07-24T06:08:18;101769.47;;;22.51;100.00
55490;BME280;44029;52.956;4.772;2022-07-24T06:10:44;101781.31;;;22.29;100.00
55490;BME280;44029;52.956;4.772;2022-07-24T06:13:10;101771.06;;;22.25;100.00
55490;BME280;44029;52.956;4.772;2022-07-24T06:15:35;101778.25;;;22.45;100.00
55490;BME280;44029;52.956;4.772;2022-07-24T06:18:00;101775.56;;;22.53;100.00
55490;BME280;44029;52.956;4.772;2022-07-24T06:20:26;101774.75;;;22.67;100.00
55490;BME280;44029;52.956;4.772;2022-07-24T06:22:51;101775.38;;;22.64;100.00
55490;BME280;44029;52.956;4.772;2022-07-24T06:25:17;101786.25;;;22.79;100.00
55490;BME280;44029;52.956;4.772;2022-07-24T06:27:44;101779.31;;;22.76;100.00
55490;BME280;44029;52.956;4.772;2022-07-24T06:30:19;101781.25;;;22.76;100.00
55490;BME280;44029;52.956;4.772;2022-07-24T06:32:45;101765.22;;;22.82;100.00
55490;BME280;44029;52.956;4.772;2022-07-24T06:35:11;101778.78;;;22.61;100.00
55490;BME280;44029;52.956;4.772;2022-07-24T06:37:37;101772.06;;;22.75;100.00
55490;BME280;44029;52.956;4.772;2022-07-24T06:40:03;101776.41;;;22.95;100.00
55490;BME280;44029;52.956;4.772;2022-07-24T06:42:29;101769.16;;;22.94;100.00
55490;BME280;44029;52.956;4.772;2022-07-24T06:44:54;101772.13;;;23.40;100.00
55490;BME280;44029;52.956;4.772;2022-07-24T06:47:19;101752.28;;;23.50;100.00
55490;BME280;44029;52.956;4.772;2022-07-24T06:49:45;101750.38;;;23.37;100.00
55490;BME280;44029;52.956;4.772;2022-07-24T06:52:10;101743.28;;;23.76;100.00
55490;BME280;44029;52.956;4.772;2022-07-24T06:54:35;101745.34;;;24.06;100.00
55490;BME280;44029;52.956;4.772;2022-07-24T06:57:01;101739.06;;;24.09;100.00
55490;BME280;44029;52.956;4.772;2022-07-24T06:59:26;101734.72;;;23.95;100.00
55490;BME280;44029;52.956;4.772;2022-07-24T07:01:51;101741.38;;;24.39;100.00
55490;BME280;44029;52.956;4.772;2022-07-24T07:04:17;101724.63;;;25.22;100.00
55490;BME280;44029;52.956;4.772;2022-07-24T07:06:42;101721.56;;;27.22;100.00
55490;BME280;44029;52.956;4.772;2022-07-24T07:09:07;101702.31;;;26.52;100.00
55490;BME280;44029;52.956;4.772;2022-07-24T07:11:33;101705.19;;;27.03;100.00
55490;BME280;44029;52.956;4.772;2022-07-24T07:13:58;101703.25;;;28.49;100.00
55490;BME280;44029;52.956;4.772;2022-07-24T07:16:23;101709.97;;;28.57;100.00
55490;BME280;44029;52.956;4.772;2022-07-24T07:18:49;101707.16;;;27.65;100.00
55490;BME280;44029;52.956;4.772;2022-07-24T07:21:14;101710.91;;;26.47;100.00
55490;BME280;44029;52.956;4.772;2022-07-24T07:23:39;101719.50;;;26.50;100.00
55490;BME280;44029;52.956;4.772;2022-07-24T07:26:05;101721.19;;;26.81;100.00
55490;BME280;44029;52.956;4.772;2022-07-24T07:28:30;101712.19;;;27.60;100.00
55490;BME280;44029;52.956;4.772;2022-07-24T07:30:55;101712.34;;;27.75;100.00
55490;BME280;44029;52.956;4.772;2022-07-24T07:33:21;101710.13;;;27.48;100.00
55490;BME280;44029;52.956;4.772;2022-07-24T07:35:47;101707.31;;;26.37;100.00
55490;BME280;44029;52.956;4.772;2022-07-24T07:38:12;101722.34;;;25.94;100.00
55490;BME280;44029;52.956;4.772;2022-07-24T07:40:37;101720.03;;;25.79;100.00
55490;BME280;44029;52.956;4.772;2022-07-24T07:43:03;101725.97;;;25.69;100.00
55490;BME280;44029;52.956;4.772;2022-07-24T07:45:28;101726.66;;;25.31;100.00
55490;BME280;44029;52.956;4.772;2022-07-24T07:47:53;101727.50;;;25.31;100.00
55490;BME280;44029;52.956;4.772;2022-07-24T07:50:19;101723.69;;;25.62;100.00
55490;BME280;44029;52.956;4.772;2022-07-24T07:52:44;101717.41;;;25.82;100.00
55490;BME280;44029;52.956;4.772;2022-07-24T07:55:10;101734.72;;;25.76;100.00
55490;BME280;44029;52.956;4.772;2022-07-24T07:57:35;101725.13;;;26.12;100.00
55490;BME280;44029;52.956;4.772;2022-07-24T08:00:02;101728.00;;;27.01;100.00
55490;BME280;44029;52.956;4.772;2022-07-24T08:02:27;101721.19;;;27.53;100.00
55490;BME280;44029;52.956;4.772;2022-07-24T08:04:54;101715.59;;;28.57;100.00
55490;BME280;44029;52.956;4.772;2022-07-24T08:07:20;101721.09;;;29.02;100.00
55490;BME280;44029;52.956;4.772;2022-07-24T08:09:45;101712.75;;;28.94;100.00
55490;BME280;44029;52.956;4.772;2022-07-24T08:12:10;101706.53;;;28.76;100.00
55490;BME280;44029;52.956;4.772;2022-07-24T08:14:36;101713.19;;;29.08;100.00
55490;BME280;44029;52.956;4.772;2022-07-24T08:17:02;101720.75;;;29.44;100.00
55490;BME280;44029;52.956;4.772;2022-07-24T08:19:28;101707.00;;;29.71;100.00
55490;BME280;44029;52.956;4.772;2022-07-24T08:21:53;101718.50;;;29.50;100.00
55490;BME280;44029;52.956;4.772;2022-07-24T08:24:18;101710.69;;;29.59;100.00
55490;BME280;44029;52.956;4.772;2022-07-24T08:26:49;101713.88;;;29.29;100.00
55490;BME280;44029;52.956;4.772;2022-07-24T08:29:14;101712.25;;;29.85;100.00
55490;BME280;44029;52.956;4.772;2022-07-24T08:31:40;101718.50;;;30.38;100.00
55490;BME280;44029;52.956;4.772;2022-07-24T08:34:05;101700.59;;;29.58;100.00
55490;BME280;44029;52.956;4.772;2022-07-24T08:36:31;101695.88;;;30.22;100.00
55490;BME280;44029;52.956;4.772;2022-07-24T08:38:56;101708.56;;;30.29;100.00
55490;BME280;44029;52.956;4.772;2022-07-24T08:41:22;101701.53;;;30.06;100.00
55490;BME280;44029;52.956;4.772;2022-07-24T08:43:47;101690.78;;;29.68;100.00
55490;BME280;44029;52.956;4.772;2022-07-24T08:46:14;101688.63;;;29.21;100.00
55490;BME280;44029;52.956;4.772;2022-07-24T08:48:43;101696.34;;;29.24;100.00
55490;BME280;44029;52.956;4.772;2022-07-24T08:51:09;101699.94;;;29.77;100.00
55490;BME280;44029;52.956;4.772;2022-07-24T08:53:34;101691.69;;;29.72;100.00
55490;BME280;44029;52.956;4.772;2022-07-24T08:56:00;101696.69;;;30.07;100.00
55490;BME280;44029;52.956;4.772;2022-07-24T08:58:25;101692.78;;;30.12;100.00
55490;BME280;44029;52.956;4.772;2022-07-24T09:00:50;101680.81;;;29.58;100.00
55490;BME280;44029;52.956;4.772;2022-07-24T09:03:16;101693.59;;;29.40;100.00
55490;BME280;44029;52.956;4.772;2022-07-24T09:05:58;101687.88;;;29.24;100.00
55490;BME280;44029;52.956;4.772;2022-07-24T09:08:23;101689.31;;;29.05;100.00
55490;BME280;44029;52.956;4.772;2022-07-24T09:11:00;101684.53;;;29.75;100.00
55490;BME280;44029;52.956;4.772;2022-07-24T09:13:27;101690.75;;;29.11;100.00
55490;BME280;44029;52.956;4.772;2022-07-24T09:15:54;101686.03;;;27.92;100.00
55490;BME280;44029;52.956;4.772;2022-07-24T09:18:28;101691.84;;;27.87;100.00
55490;BME280;44029;52.956;4.772;2022-07-24T09:20:54;101695.53;;;27.67;100.00
55490;BME280;44029;52.956;4.772;2022-07-24T09:23:20;101696.03;;;28.02;100.00
55490;BME280;44029;52.956;4.772;2022-07-24T09:25:53;101704.88;;;28.50;100.00
55490;BME280;44029;52.956;4.772;2022-07-24T09:28:19;101696.59;;;29.19;100.00
55490;BME280;44029;52.956;4.772;2022-07-24T09:30:45;101696.69;;;28.57;100.00
55490;BME280;44029;52.956;4.772;2022-07-24T09:38:25;101699.06;;;27.43;100.00
55490;BME280;44029;52.956;4.772;2022-07-24T09:40:53;101695.16;;;27.14;100.00
55490;BME280;44029;52.956;4.772;2022-07-24T09:46:06;101701.38;;;27.28;100.00
55490;BME280;44029;52.956;4.772;2022-07-24T09:48:35;101696.38;;;27.67;100.00
55490;BME280;44029;52.956;4.772;2022-07-24T09:51:03;101707.75;;;27.37;100.00
55490;BME280;44029;52.956;4.772;2022-07-24T09:53:31;101701.50;;;27.32;100.00
55490;BME280;44029;52.956;4.772;2022-07-24T09:55:57;101700.47;;;27.70;100.00
55490;BME280;44029;52.956;4.772;2022-07-24T09:58:24;101700.50;;;28.03;100.00
55490;BME280;44029;52.956;4.772;2022-07-24T10:00:52;101708.38;;;27.76;100.00
55490;BME280;44029;52.956;4.772;2022-07-24T10:03:24;101702.50;;;28.03;100.00
55490;BME280;44029;52.956;4.772;2022-07-24T10:05:54;101693.84;;;27.53;100.00
55490;BME280;44029;52.956;4.772;2022-07-24T10:08:20;101697.09;;;27.43;100.00
55490;BME280;44029;52.956;4.772;2022-07-24T10:10:47;101698.00;;;27.35;100.00
55490;BME280;44029;52.956;4.772;2022-07-24T10:13:14;101692.59;;;27.00;100.00
55490;BME280;44029;52.956;4.772;2022-07-24T10:15:54;101695.72;;;27.49;100.00
55490;BME280;44029;52.956;4.772;2022-07-24T10:21:05;101698.19;;;26.88;100.00
55490;BME280;44029;52.956;4.772;2022-07-24T10:24:26;101695.38;;;27.09;100.00
55490;BME280;44029;52.956;4.772;2022-07-24T10:26:34;101687.47;;;27.23;100.00
55490;BME280;44029;52.956;4.772;2022-07-24T10:29:19;101695.09;;;27.23;100.00
55490;BME280;44029;52.956;4.772;2022-07-24T10:31:51;101698.47;;;27.37;100.00
55490;BME280;44029;52.956;4.772;2022-07-24T10:37:22;101696.84;;;27.36;100.00
55490;BME280;44029;52.956;4.772;2022-07-24T10:42:33;101698.88;;;27.48;100.00
55490;BME280;44029;52.956;4.772;2022-07-24T10:45:18;101692.56;;;27.30;100.00
55490;BME280;44029;52.956;4.772;2022-07-24T10:47:44;101696.94;;;26.76;100.00
55490;BME280;44029;52.956;4.772;2022-07-24T10:50:10;101692.06;;;27.07;100.00
55490;BME280;44029;52.956;4.772;2022-07-24T10:52:36;101694.44;;;27.26;100.00
55490;BME280;44029;52.956;4.772;2022-07-24T10:55:30;101687.97;;;27.04;100.00
55490;BME280;44029;52.956;4.772;2022-07-24T10:58:11;101679.59;;;27.16;100.00
55490;BME280;44029;52.956;4.772;2022-07-24T11:00:40;101675.94;;;27.16;100.00
55490;BME280;44029;52.956;4.772;2022-07-24T11:06:10;101681.97;;;27.06;100.00
55490;BME280;44029;52.956;4.772;2022-07-24T11:11:11;101688.19;;;27.41;100.00
55490;BME280;44029;52.956;4.772;2022-07-24T11:21:12;101678.03;;;27.28;100.00
55490;BME280;44029;52.956;4.772;2022-07-24T11:27:05;101676.09;;;27.19;100.00
55490;BME280;44029;52.956;4.772;2022-07-24T11:29:33;101673.88;;;27.46;100.00
55490;BME280;44029;52.956;4.772;2022-07-24T11:32:05;101672.81;;;27.38;100.00
55490;BME280;44029;52.956;4.772;2022-07-24T11:34:33;101666.09;;;27.31;100.00
55490;BME280;44029;52.956;4.772;2022-07-24T11:36:59;101667.38;;;27.12;100.00
55490;BME280;44029;52.956;4.772;2022-07-24T11:39:31;101671.78;;;27.01;100.00
55490;BME280;44029;52.956;4.772;2022-07-24T11:42:07;101679.53;;;27.04;100.00
55490;BME280;44029;52.956;4.772;2022-07-24T11:44:37;101658.53;;;27.02;100.00
55490;BME280;44029;52.956;4.772;2022-07-24T11:50:02;101667.63;;;27.28;100.00
55490;BME280;44029;52.956;4.772;2022-07-24T11:52:37;101659.75;;;26.92;100.00
55490;BME280;44029;52.956;4.772;2022-07-24T11:55:07;101661.28;;;27.10;100.00
55490;BME280;44029;52.956;4.772;2022-07-24T11:57:40;101649.13;;;27.40;100.00
55490;BME280;44029;52.956;4.772;2022-07-24T12:00:09;101653.16;;;27.51;100.00
55490;BME280;44029;52.956;4.772;2022-07-24T12:02:36;101658.19;;;27.45;100.00
55490;BME280;44029;52.956;4.772;2022-07-24T12:05:03;101661.63;;;27.63;100.00
55490;BME280;44029;52.956;4.772;2022-07-24T12:07:28;101650.59;;;27.58;100.00
55490;BME280;44029;52.956;4.772;2022-07-24T12:09:58;101647.22;;;27.31;100.00
55490;BME280;44029;52.956;4.772;2022-07-24T12:12:35;101640.09;;;27.34;100.00
55490;BME280;44029;52.956;4.772;2022-07-24T12:15:09;101641.81;;;27.60;100.00
55490;BME280;44029;52.956;4.772;2022-07-24T12:18:05;101643.41;;;27.48;100.00
55490;BME280;44029;52.956;4.772;2022-07-24T12:20:37;101641.09;;;27.50;100.00
55490;BME280;44029;52.956;4.772;2022-07-24T12:23:05;101657.81;;;27.80;100.00
55490;BME280;44029;52.956;4.772;2022-07-24T12:25:31;101643.09;;;27.62;100.00
55490;BME280;44029;52.956;4.772;2022-07-24T12:28:07;101650.28;;;27.72;100.00
55490;BME280;44029;52.956;4.772;2022-07-24T12:30:35;101638.34;;;27.87;100.00
55490;BME280;44029;52.956;4.772;2022-07-24T12:33:22;101641.00;;;28.05;100.00
55490;BME280;44029;52.956;4.772;2022-07-24T12:38:29;101636.53;;;27.58;100.00
55490;BME280;44029;52.956;4.772;2022-07-24T12:41:05;101639.66;;;27.23;100.00
55490;BME280;44029;52.956;4.772;2022-07-24T12:43:32;101640.69;;;27.40;100.00
55490;BME280;44029;52.956;4.772;2022-07-24T12:46:08;101630.94;;;27.37;100.00
55490;BME280;44029;52.956;4.772;2022-07-24T12:48:34;101633.53;;;27.42;100.00
55490;BME280;44029;52.956;4.772;2022-07-24T12:51:08;101636.88;;;27.56;100.00
55490;BME280;44029;52.956;4.772;2022-07-24T12:53:36;101632.69;;;27.75;100.00
55490;BME280;44029;52.956;4.772;2022-07-24T12:56:07;101622.09;;;27.93;100.00
55490;BME280;44029;52.956;4.772;2022-07-24T13:01:13;101611.94;;;27.67;100.00
55490;BME280;44029;52.956;4.772;2022-07-24T13:03:40;101615.34;;;27.73;100.00
55490;BME280;44029;52.956;4.772;2022-07-24T13:06:05;101611.59;;;27.35;100.00
55490;BME280;44029;52.956;4.772;2022-07-24T13:08:30;101606.72;;;27.57;100.00
55490;BME280;44029;52.956;4.772;2022-07-24T13:10:56;101609.94;;;27.68;100.00
55490;BME280;44029;52.956;4.772;2022-07-24T13:13:22;101613.00;;;27.75;100.00
55490;BME280;44029;52.956;4.772;2022-07-24T13:15:47;101613.22;;;27.70;100.00
55490;BME280;44029;52.956;4.772;2022-07-24T13:18:12;101611.03;;;27.88;100.00
55490;BME280;44029;52.956;4.772;2022-07-24T13:20:38;101599.59;;;27.72;100.00